Time;durP1;ratioP1;P1;durP2;ratioP2;P2;SDS_P1;SDS_P2;PMS_P1;PMS_P2;Temp;Humidity;BMP_temperature;BMP_pressure;BME280_temperature;BME280_humidity;BME280_pressure;Samples;Min_cycle;Max_cycle;Signal;HPM_P1;HPM_P2
2022/03/02 00:02:05;;;;;;;;;;;;;;;17.02;40.76;101804.41;4419975;32;20595;-69
2022/03/02 00:04:30;;;;;;;;;;;;;;;17.00;40.72;101802.00;4417532;32;20354;-69
2022/03/02 00:06:56;;;;;;;;;;;;;;;17.25;40.28;101801.19;4415067;32;20004;-70
2022/03/02 00:09:22;;;;;;;;;;;;;;;17.46;40.04;101792.72;4415759;32;20020;-70
2022/03/02 00:11:47;;;;;;;;;;;;;;;17.47;40.03;101796.37;4419104;32;20348;-69
2022/03/02 00:14:13;;;;;;;;;;;;;;;17.40;40.21;101794.53;4418669;32;19953;-69
2022/03/02 00:16:39;;;;;;;;;;;;;;;17.51;40.22;101786.44;4419203;32;20340;-69
2022/03/02 00:19:05;;;;;;;;;;;;;;;17.31;40.33;101794.44;4415479;32;19997;-69
2022/03/02 00:21:30;;;;;;;;;;;;;;;17.62;40.00;101792.53;4414948;32;19949;-69
2022/03/02 00:23:56;;;;;;;;;;;;;;;17.51;39.83;101794.97;4418901;32;19958;-69
2022/03/02 00:26:21;;;;;;;;;;;;;;;17.41;39.84;101781.91;4417317;32;20027;-70
2022/03/02 00:28:47;;;;;;;;;;;;;;;17.52;39.46;101790.88;4417829;32;20027;-69
2022/03/02 00:31:12;;;;;;;;;;;;;;;17.60;39.49;101783.69;4416623;32;20000;-69
2022/03/02 00:33:39;;;;;;;;;;;;;;;17.68;39.09;101779.28;4416807;32;19954;-70
2022/03/02 00:36:05;;;;;;;;;;;;;;;17.48;39.57;101775.97;4417426;32;20529;-70
2022/03/02 00:38:30;;;;;;;;;;;;;;;17.52;38.95;101773.78;4414918;32;19993;-70
2022/03/02 00:40:56;;;;;;;;;;;;;;;17.57;38.91;101763.88;4418067;32;20417;-70
2022/03/02 00:43:22;;;;;;;;;;;;;;;17.35;39.44;101755.28;4416557;32;20828;-69
2022/03/02 00:45:48;;;;;;;;;;;;;;;17.61;39.42;101767.38;4419181;32;20319;-69
2022/03/02 00:48:13;;;;;;;;;;;;;;;17.51;39.59;101760.03;4417033;32;19984;-69
2022/03/02 00:50:40;;;;;;;;;;;;;;;17.53;39.50;101760.38;4417756;32;20001;-69
2022/03/02 00:53:07;;;;;;;;;;;;;;;17.70;38.97;101758.91;4417577;32;20414;-69
2022/03/02 00:55:33;;;;;;;;;;;;;;;17.61;39.10;101753.13;4416051;32;19993;-69
2022/03/02 00:58:01;;;;;;;;;;;;;;;17.62;39.30;101755.53;4418348;32;19985;-69
2022/03/02 01:00:26;;;;;;;;;;;;;;;17.76;38.91;101757.84;4414193;32;20433;-69
2022/03/02 01:02:52;;;;;;;;;;;;;;;17.82;39.07;101746.66;4419372;32;20001;-69
2022/03/02 01:05:17;;;;;;;;;;;;;;;17.63;39.39;101744.94;4418381;32;20005;-69
2022/03/02 01:07:43;;;;;;;;;;;;;;;17.76;38.93;101746.47;4415239;32;20012;-69
2022/03/02 01:10:09;;;;;;;;;;;;;;;17.84;38.85;101738.44;4403939;32;19953;-69
2022/03/02 01:12:35;;;;;;;;;;;;;;;17.83;38.77;101725.47;4415126;32;20004;-69
2022/03/02 01:15:00;;;;;;;;;;;;;;;17.60;39.33;101731.63;4401212;32;19997;-69
2022/03/02 01:17:26;;;;;;;;;;;;;;;17.82;38.79;101730.38;4400149;32;19975;-69
2022/03/02 01:19:51;;;;;;;;;;;;;;;17.87;38.84;101723.28;4419575;32;19985;-69
2022/03/02 01:22:17;;;;;;;;;;;;;;;17.98;38.83;101720.78;4415146;32;19958;-69
2022/03/02 01:24:43;;;;;;;;;;;;;;;17.79;39.04;101719.09;4418799;32;20399;-69
2022/03/02 01:27:08;;;;;;;;;;;;;;;17.76;38.56;101717.19;4415461;32;20001;-70
2022/03/02 01:29:34;;;;;;;;;;;;;;;17.73;39.18;101713.22;4417495;32;19990;-69
2022/03/02 01:32:01;;;;;;;;;;;;;;;17.79;39.10;101714.22;4416827;32;19996;-70
2022/03/02 01:34:29;;;;;;;;;;;;;;;17.99;38.87;101704.50;4419156;32;20008;-70
2022/03/02 01:36:55;;;;;;;;;;;;;;;17.85;38.83;101703.81;4416888;32;20011;-70
2022/03/02 01:39:21;;;;;;;;;;;;;;;17.63;39.38;101700.19;4418465;32;20294;-70
2022/03/02 01:41:46;;;;;;;;;;;;;;;17.73;39.30;101703.88;4419496;32;19958;-70
2022/03/02 01:44:12;;;;;;;;;;;;;;;17.92;39.42;101696.25;4421494;32;20446;-70
2022/03/02 01:46:37;;;;;;;;;;;;;;;17.69;39.86;101683.28;4419374;32;19981;-70
2022/03/02 01:49:03;;;;;;;;;;;;;;;17.66;40.14;101673.66;4414186;32;19953;-69
2022/03/02 01:51:30;;;;;;;;;;;;;;;17.59;40.33;101671.06;4416208;32;19968;-69
2022/03/02 01:53:56;;;;;;;;;;;;;;;17.15;41.00;101680.81;4417270;32;20001;-69
2022/03/02 01:56:22;;;;;;;;;;;;;;;16.95;41.71;101673.84;4412859;32;21847;-69
2022/03/02 01:58:48;;;;;;;;;;;;;;;17.30;41.25;101676.19;4414680;32;20058;-69
2022/03/02 02:01:14;;;;;;;;;;;;;;;17.22;41.70;101666.34;4415593;32;19950;-69
2022/03/02 02:03:40;;;;;;;;;;;;;;;17.13;42.17;101671.16;4417653;32;20119;-69
2022/03/02 02:06:06;;;;;;;;;;;;;;;17.21;42.02;101664.75;4417357;32;20007;-69
2022/03/02 02:08:31;;;;;;;;;;;;;;;17.38;42.15;101659.66;4414859;32;20009;-69
2022/03/02 02:10:58;;;;;;;;;;;;;;;17.40;42.10;101652.22;4416595;32;19958;-69
2022/03/02 02:13:24;;;;;;;;;;;;;;;17.12;42.57;101647.59;4418276;32;19980;-69
2022/03/02 02:15:50;;;;;;;;;;;;;;;17.12;42.75;101649.66;4417714;32;19993;-69
2022/03/02 02:18:16;;;;;;;;;;;;;;;16.96;42.83;101639.25;4417545;32;20008;-69
2022/03/02 02:20:41;;;;;;;;;;;;;;;17.14;42.68;101644.28;4415096;32;20144;-69
2022/03/02 02:23:07;;;;;;;;;;;;;;;16.50;44.29;101623.03;4414035;32;21129;-69
2022/03/02 02:25:33;;;;;;;;;;;;;;;16.81;43.52;101628.88;4415194;32;19989;-69
2022/03/02 02:27:59;;;;;;;;;;;;;;;16.58;43.97;101618.69;4417911;32;19989;-69
2022/03/02 02:30:25;;;;;;;;;;;;;;;16.86;43.39;101626.22;4415634;32;19968;-69
2022/03/02 02:32:51;;;;;;;;;;;;;;;16.70;43.97;101615.03;4413410;32;20005;-70
2022/03/02 02:35:16;;;;;;;;;;;;;;;16.76;44.08;101612.38;4415970;32;19953;-70
2022/03/02 02:37:42;;;;;;;;;;;;;;;16.82;43.83;101611.34;4416076;32;20045;-70
2022/03/02 02:40:10;;;;;;;;;;;;;;;16.90;43.95;101609.00;4416156;32;20342;-69
2022/03/02 02:42:37;;;;;;;;;;;;;;;16.79;43.37;101608.62;4416455;32;19996;-70
2022/03/02 02:45:03;;;;;;;;;;;;;;;16.74;44.01;101595.78;4417350;32;20199;-70
2022/03/02 02:47:29;;;;;;;;;;;;;;;16.65;44.26;101600.59;4402442;32;19953;-70
2022/03/02 02:49:54;;;;;;;;;;;;;;;16.79;43.97;101594.41;4414571;32;20050;-70
2022/03/02 02:52:20;;;;;;;;;;;;;;;16.66;44.33;101588.75;4414521;32;19966;-70
2022/03/02 02:54:47;;;;;;;;;;;;;;;16.83;44.19;101583.69;4416682;32;19958;-69
2022/03/02 02:57:13;;;;;;;;;;;;;;;16.69;44.54;101579.31;4414651;32;19980;-70
2022/03/02 02:59:39;;;;;;;;;;;;;;;16.92;44.45;101566.72;4415148;32;19953;-70
2022/03/02 03:02:05;;;;;;;;;;;;;;;16.64;44.97;101567.75;4416581;32;20927;-70
2022/03/02 03:04:31;;;;;;;;;;;;;;;16.81;44.56;101564.25;4415988;32;20054;-69
2022/03/02 03:06:57;;;;;;;;;;;;;;;16.69;44.88;101567.16;4413949;32;19960;-69
2022/03/02 03:09:23;;;;;;;;;;;;;;;16.63;44.81;101566.94;4416066;32;20334;-70
2022/03/02 03:11:48;;;;;;;;;;;;;;;16.56;45.56;101557.88;4416786;32;20357;-70
2022/03/02 03:14:14;;;;;;;;;;;;;;;16.74;45.03;101556.00;4416314;32;20286;-70
2022/03/02 03:16:40;;;;;;;;;;;;;;;16.88;45.16;101554.69;4417482;32;20414;-70
2022/03/02 03:19:07;;;;;;;;;;;;;;;16.84;45.00;101551.19;4417603;32;20007;-70
2022/03/02 03:21:32;;;;;;;;;;;;;;;16.84;44.90;101537.75;4417798;32;19985;-70
2022/03/02 03:23:58;;;;;;;;;;;;;;;16.76;45.15;101539.28;4418918;32;20394;-70
2022/03/02 03:26:24;;;;;;;;;;;;;;;16.73;45.49;101537.34;4420107;32;19993;-70
2022/03/02 03:28:50;;;;;;;;;;;;;;;16.90;45.06;101530.22;4418964;32;20028;-70
2022/03/02 03:31:15;;;;;;;;;;;;;;;16.22;46.22;101530.22;4418518;32;20042;-70
2022/03/02 03:33:41;;;;;;;;;;;;;;;16.61;45.91;101524.00;4417093;32;20112;-70
2022/03/02 03:36:07;;;;;;;;;;;;;;;16.63;45.82;101515.78;4416227;32;20013;-70
2022/03/02 03:38:33;;;;;;;;;;;;;;;16.48;46.31;101514.75;4416780;32;20359;-70
2022/03/02 03:40:59;;;;;;;;;;;;;;;16.67;45.91;101516.47;4419217;32;20020;-70
2022/03/02 03:43:24;;;;;;;;;;;;;;;16.54;46.38;101507.19;4418634;32;20011;-70
2022/03/02 03:45:51;;;;;;;;;;;;;;;16.79;46.18;101503.44;4415421;32;19980;-70
2022/03/02 03:48:17;;;;;;;;;;;;;;;16.69;45.90;101502.56;4419494;32;20001;-70
2022/03/02 03:50:44;;;;;;;;;;;;;;;16.91;46.03;101499.72;4418422;32;20034;-70
2022/03/02 03:53:10;;;;;;;;;;;;;;;16.78;46.02;101499.78;4416060;32;20417;-70
2022/03/02 03:55:35;;;;;;;;;;;;;;;16.91;45.93;101496.91;4418382;32;20249;-70
2022/03/02 03:58:01;;;;;;;;;;;;;;;16.92;45.21;101487.91;4418169;32;20000;-70
2022/03/02 04:00:28;;;;;;;;;;;;;;;16.99;45.38;101481.94;4417619;32;20078;-70
2022/03/02 04:02:53;;;;;;;;;;;;;;;16.67;46.09;101482.34;4415850;32;20004;-70
2022/03/02 04:05:19;;;;;;;;;;;;;;;16.83;46.05;101476.47;4416217;32;19997;-69
2022/03/02 04:07:45;;;;;;;;;;;;;;;16.69;46.17;101474.16;4417433;32;20024;-70
2022/03/02 04:10:13;;;;;;;;;;;;;;;16.77;46.18;101469.78;4415902;32;19961;-70
2022/03/02 04:12:39;;;;;;;;;;;;;;;16.95;45.76;101469.09;4417540;32;19968;-70
2022/03/02 04:15:05;;;;;;;;;;;;;;;16.72;46.35;101461.84;4418914;32;19957;-70
2022/03/02 04:17:30;;;;;;;;;;;;;;;16.91;46.11;101457.84;4419225;32;19949;-70
2022/03/02 04:19:56;;;;;;;;;;;;;;;16.64;46.44;101454.88;4415828;32;20011;-70
2022/03/02 04:22:22;;;;;;;;;;;;;;;16.98;45.84;101442.59;4414821;32;20008;-70
2022/03/02 04:24:47;;;;;;;;;;;;;;;16.98;46.03;101446.22;4415243;32;19957;-70
2022/03/02 04:27:13;;;;;;;;;;;;;;;16.94;46.49;101436.25;4418532;32;19968;-70
2022/03/02 04:29:39;;;;;;;;;;;;;;;16.84;46.49;101429.72;4418933;32;20011;-70
2022/03/02 04:32:04;;;;;;;;;;;;;;;16.82;46.64;101422.91;4415528;32;19941;-71
2022/03/02 04:34:30;;;;;;;;;;;;;;;17.02;46.43;101426.97;4419868;32;19999;-71
2022/03/02 04:36:56;;;;;;;;;;;;;;;17.08;46.31;101424.31;4416942;32;20069;-70
2022/03/02 04:39:21;;;;;;;;;;;;;;;17.02;46.15;101417.63;4414688;32;19993;-70
2022/03/02 04:41:47;;;;;;;;;;;;;;;17.10;46.37;101419.75;4416204;32;20307;-70
2022/03/02 04:44:12;;;;;;;;;;;;;;;17.09;46.08;101423.84;4417784;32;19962;-70
2022/03/02 04:46:38;;;;;;;;;;;;;;;16.82;46.65;101417.22;4414670;32;20365;-70
2022/03/02 04:49:13;;;;;;;;;;;;;;;17.03;46.53;101414.31;4418920;32;19999;-70
2022/03/02 04:51:39;;;;;;;;;;;;;;;17.00;46.23;101418.09;4416143;32;19996;-70
2022/03/02 04:54:06;;;;;;;;;;;;;;;17.17;45.99;101408.09;4414367;32;19961;-70
2022/03/02 04:56:31;;;;;;;;;;;;;;;17.10;45.95;101407.56;4416219;32;19968;-70
2022/03/02 04:58:57;;;;;;;;;;;;;;;16.85;46.48;101408.56;4416875;32;19949;-70
2022/03/02 05:01:22;;;;;;;;;;;;;;;16.68;46.90;101412.09;4414208;32;20347;-70
2022/03/02 05:03:48;;;;;;;;;;;;;;;16.52;47.25;101412.28;4416161;32;20008;-70
2022/03/02 05:06:13;;;;;;;;;;;;;;;16.72;46.84;101404.22;4401747;32;19996;-70
2022/03/02 05:08:39;;;;;;;;;;;;;;;16.36;47.51;101398.28;4416144;32;20154;-69
2022/03/02 05:11:04;;;;;;;;;;;;;;;16.54;47.17;101396.34;4416147;32;19969;-70
2022/03/02 05:13:31;;;;;;;;;;;;;;;16.76;46.56;101397.16;4416574;32;19972;-70
2022/03/02 05:15:56;;;;;;;;;;;;;;;16.77;46.96;101393.03;4414514;32;20404;-70
2022/03/02 05:18:22;;;;;;;;;;;;;;;16.74;46.85;101396.81;4403248;32;20378;-70
2022/03/02 05:20:48;;;;;;;;;;;;;;;16.59;47.02;101392.13;4417369;32;20298;-70
2022/03/02 05:23:13;;;;;;;;;;;;;;;16.77;46.92;101390.19;4417031;32;19984;-70
2022/03/02 05:25:38;;;;;;;;;;;;;;;16.75;46.95;101386.25;4416637;32;19949;-70
2022/03/02 05:28:04;;;;;;;;;;;;;;;16.30;47.47;101389.56;4417733;32;19957;-70
2022/03/02 05:30:29;;;;;;;;;;;;;;;16.23;47.90;101389.81;4416199;32;19961;-70
2022/03/02 05:32:55;;;;;;;;;;;;;;;16.11;47.80;101381.34;4415853;32;20321;-70
2022/03/02 05:35:20;;;;;;;;;;;;;;;16.11;47.91;101384.19;4414646;32;19977;-72
2022/03/02 05:37:47;;;;;;;;;;;;;;;16.35;47.78;101379.66;4417253;32;19993;-71
2022/03/02 05:40:15;;;;;;;;;;;;;;;16.51;47.49;101382.31;4413816;32;20292;-71
2022/03/02 05:42:40;;;;;;;;;;;;;;;16.50;47.26;101375.06;4419409;32;20115;-71
2022/03/02 05:45:06;;;;;;;;;;;;;;;16.59;47.02;101384.41;4419844;32;19954;-71
2022/03/02 05:47:32;;;;;;;;;;;;;;;16.42;47.25;101383.03;4416202;32;20083;-71
2022/03/02 05:49:57;;;;;;;;;;;;;;;16.34;47.45;101378.84;4416614;32;19997;-71
2022/03/02 05:52:24;;;;;;;;;;;;;;;16.40;47.09;101377.00;4413983;32;20026;-71
2022/03/02 05:54:49;;;;;;;;;;;;;;;16.37;47.18;101368.59;4415393;32;20007;-71
2022/03/02 05:57:15;;;;;;;;;;;;;;;16.67;46.59;101367.88;4416662;32;20370;-71
2022/03/02 05:59:40;;;;;;;;;;;;;;;16.64;46.72;101372.44;4418088;32;20013;-72
2022/03/02 06:02:06;;;;;;;;;;;;;;;16.60;47.05;101371.00;4415703;32;19996;-71
2022/03/02 06:04:32;;;;;;;;;;;;;;;16.61;46.61;101367.69;4416344;32;20007;-72
2022/03/02 06:06:57;;;;;;;;;;;;;;;16.81;46.42;101365.25;4419224;32;19960;-72
2022/03/02 06:09:23;;;;;;;;;;;;;;;16.88;46.24;101369.88;4411870;32;20064;-72
2022/03/02 06:11:49;;;;;;;;;;;;;;;16.62;46.20;101377.00;4415497;32;20016;-72
2022/03/02 06:14:14;;;;;;;;;;;;;;;16.76;46.37;101376.44;4421287;32;21236;-72
2022/03/02 06:16:40;;;;;;;;;;;;;;;16.81;46.12;101376.63;4414611;32;20014;-72
2022/03/02 06:19:06;;;;;;;;;;;;;;;17.02;46.00;101364.41;4416597;32;19997;-72
2022/03/02 06:21:32;;;;;;;;;;;;;;;16.96;46.12;101359.78;4413487;32;19986;-72
2022/03/02 06:23:58;;;;;;;;;;;;;;;16.82;46.12;101368.91;4416962;32;19960;-72
2022/03/02 06:26:24;;;;;;;;;;;;;;;16.89;45.81;101368.59;4416586;32;20276;-72
2022/03/02 06:28:50;;;;;;;;;;;;;;;16.79;45.67;101367.78;4414424;32;19960;-72
2022/03/02 06:31:16;;;;;;;;;;;;;;;16.65;46.31;101364.69;4416250;32;20390;-72
2022/03/02 06:33:42;;;;;;;;;;;;;;;16.66;46.39;101366.28;4414145;32;20020;-72
2022/03/02 06:36:07;;;;;;;;;;;;;;;16.65;46.19;101359.00;4414456;32;20397;-72
2022/03/02 06:38:33;;;;;;;;;;;;;;;16.25;46.72;101370.25;4414779;32;20428;-72
2022/03/02 06:43:39;;;;;;;;;;;;;;;17.27;45.49;101374.75;3950016;32;15775579;-72
2022/03/02 06:46:07;;;;;;;;;;;;;;;17.27;45.49;101374.75;4429560;32;19942;-72
2022/03/02 06:48:52;;;;;;;;;;;;;;;16.77;45.99;101378.03;4427546;32;19968;-72
2022/03/02 06:51:20;;;;;;;;;;;;;;;16.63;46.56;101378.59;4429987;32;20264;-72
2022/03/02 06:53:46;;;;;;;;;;;;;;;16.73;46.19;101372.50;4426867;32;20310;-72
2022/03/02 06:56:13;;;;;;;;;;;;;;;16.85;46.36;101367.97;4424977;32;19969;-72
2022/03/02 07:01:18;;;;;;;;;;;;;;;16.37;46.58;101372.25;3950988;32;15722556;-73
2022/03/02 07:03:47;;;;;;;;;;;;;;;16.54;46.22;101370.78;4426913;32;20386;-73
2022/03/02 07:06:14;;;;;;;;;;;;;;;16.67;46.19;101368.69;4430261;32;20056;-73
2022/03/02 07:08:40;;;;;;;;;;;;;;;16.54;46.87;101365.09;4429159;32;20323;-73
2022/03/02 07:11:06;;;;;;;;;;;;;;;16.62;46.62;101366.44;4427715;32;19988;-73
2022/03/02 07:13:33;;;;;;;;;;;;;;;16.87;46.05;101376.81;4415904;32;20307;-73
2022/03/02 07:15:59;;;;;;;;;;;;;;;17.07;45.87;101380.06;4429361;32;20015;-72
2022/03/02 07:18:24;;;;;;;;;;;;;;;16.99;45.48;101378.75;4430087;32;19998;-72
2022/03/02 07:20:50;;;;;;;;;;;;;;;17.04;45.79;101386.69;4427773;32;20001;-73
2022/03/02 07:23:18;;;;;;;;;;;;;;;17.14;45.75;101382.63;4427577;32;19988;-73
2022/03/02 07:25:45;;;;;;;;;;;;;;;17.29;45.24;101381.56;4426104;32;20377;-73
2022/03/02 07:28:12;;;;;;;;;;;;;;;17.12;46.01;101376.63;4426953;32;20364;-73
2022/03/02 07:30:39;;;;;;;;;;;;;;;17.06;45.40;101382.13;4428518;32;20023;-73
2022/03/02 07:33:05;;;;;;;;;;;;;;;16.93;45.87;101387.13;4425481;32;20325;-73
2022/03/02 07:35:32;;;;;;;;;;;;;;;16.78;46.37;101386.09;4409631;32;20436;-73
2022/03/02 07:37:59;;;;;;;;;;;;;;;16.73;46.07;101380.22;4424613;32;19997;-73
2022/03/02 07:40:25;;;;;;;;;;;;;;;16.81;45.69;101387.22;4422781;32;20008;-73
2022/03/02 07:42:51;;;;;;;;;;;;;;;16.92;45.93;101387.59;4427278;32;19977;-72
2022/03/02 07:45:16;;;;;;;;;;;;;;;16.83;45.79;101390.38;4426829;32;20743;-72
2022/03/02 07:47:43;;;;;;;;;;;;;;;16.89;45.94;101377.94;4422157;32;19949;-72
2022/03/02 07:50:09;;;;;;;;;;;;;;;16.80;45.99;101385.63;4426662;32;19969;-73
2022/03/02 07:52:37;;;;;;;;;;;;;;;17.07;45.93;101377.22;4425408;32;20441;-72
2022/03/02 07:55:06;;;;;;;;;;;;;;;16.99;45.98;101373.06;4407513;32;20745;-73
2022/03/02 07:57:32;;;;;;;;;;;;;;;17.06;45.48;101378.50;4423861;32;19953;-73
2022/03/02 07:59:58;;;;;;;;;;;;;;;16.81;45.73;101388.00;4419653;32;20041;-73
2022/03/02 08:02:24;;;;;;;;;;;;;;;16.95;45.82;101380.97;4413130;32;20312;-73
2022/03/02 08:04:52;;;;;;;;;;;;;;;17.01;46.22;101381.94;4418709;32;19996;-73
2022/03/02 08:07:18;;;;;;;;;;;;;;;17.02;46.02;101390.00;4416082;32;20046;-73
2022/03/02 08:09:44;;;;;;;;;;;;;;;16.75;46.71;101391.94;4420881;32;20001;-73
2022/03/02 08:12:10;;;;;;;;;;;;;;;16.82;46.52;101395.28;4412916;32;20466;-73
2022/03/02 08:14:36;;;;;;;;;;;;;;;16.83;46.94;101396.06;4407951;32;20096;-73
2022/03/02 08:17:02;;;;;;;;;;;;;;;16.47;46.95;101390.97;4409127;32;19993;-73
2022/03/02 08:19:28;;;;;;;;;;;;;;;16.52;46.71;101381.84;4408517;32;20038;-73
2022/03/02 08:21:58;;;;;;;;;;;;;;;16.58;46.62;101380.00;4410192;32;20327;-73
2022/03/02 08:24:26;;;;;;;;;;;;;;;16.71;46.39;101380.69;4402118;32;20064;-72
2022/03/02 08:26:52;;;;;;;;;;;;;;;16.68;46.92;101377.97;4406595;32;20359;-72
2022/03/02 08:29:23;;;;;;;;;;;;;;;17.17;46.24;101373.16;4409345;32;19981;-71
2022/03/02 08:31:49;;;;;;;;;;;;;;;16.55;46.98;101375.22;4408223;32;19972;-73
2022/03/02 08:34:14;;;;;;;;;;;;;;;16.34;47.21;101376.00;4406000;32;19965;-73
2022/03/02 08:36:43;;;;;;;;;;;;;;;16.46;47.26;101372.34;4400936;32;20287;-73
2022/03/02 08:39:11;;;;;;;;;;;;;;;16.40;47.32;101368.47;4393709;32;20008;-73
2022/03/02 08:41:39;;;;;;;;;;;;;;;16.56;47.13;101371.12;4408726;32;20194;-73
2022/03/02 08:44:11;;;;;;;;;;;;;;;16.74;46.80;101367.59;4392383;32;20020;-73
2022/03/02 08:46:38;;;;;;;;;;;;;;;16.90;46.81;101370.19;4405519;32;20005;-73
2022/03/02 08:49:05;;;;;;;;;;;;;;;16.49;47.49;101368.56;4401630;32;20021;-74
2022/03/02 08:51:31;;;;;;;;;;;;;;;16.52;47.29;101359.13;4410143;32;20301;-73
2022/03/02 08:53:58;;;;;;;;;;;;;;;16.71;46.85;101365.69;4403001;32;20005;-74
2022/03/02 08:56:25;;;;;;;;;;;;;;;16.77;47.14;101353.25;4405237;32;20105;-74
2022/03/02 08:58:52;;;;;;;;;;;;;;;16.86;46.46;101363.84;4408919;32;19967;-73
2022/03/02 09:01:19;;;;;;;;;;;;;;;16.83;46.64;101359.91;4405928;32;20765;-72
2022/03/02 09:03:46;;;;;;;;;;;;;;;16.71;46.81;101363.63;4408689;32;19997;-73
2022/03/02 09:06:12;;;;;;;;;;;;;;;16.96;46.24;101356.94;4407794;32;20001;-73
2022/03/02 09:08:38;;;;;;;;;;;;;;;17.12;46.34;101357.50;4407657;32;20763;-72
2022/03/02 09:11:04;;;;;;;;;;;;;;;17.14;46.40;101359.88;4409526;32;20012;-73
2022/03/02 09:13:30;;;;;;;;;;;;;;;17.33;46.41;101364.34;4410162;32;19979;-73
2022/03/02 09:15:56;;;;;;;;;;;;;;;17.57;46.01;101357.66;4406130;32;20005;-73
2022/03/02 09:18:22;;;;;;;;;;;;;;;17.51;45.81;101347.34;4407290;32;19997;-73
2022/03/02 09:20:55;;;;;;;;;;;;;;;17.00;46.46;101352.69;4407255;32;20550;-73
2022/03/02 09:23:24;;;;;;;;;;;;;;;16.72;46.64;101358.75;4410016;32;19995;-73
2022/03/02 09:25:51;;;;;;;;;;;;;;;16.66;47.03;101355.69;4408412;32;20356;-73
2022/03/02 09:28:19;;;;;;;;;;;;;;;16.92;46.76;101339.25;4406872;32;20040;-72
2022/03/02 09:30:45;;;;;;;;;;;;;;;17.11;46.17;101353.06;4404277;32;19989;-73
2022/03/02 09:33:14;;;;;;;;;;;;;;;17.17;46.11;101344.69;4410070;32;20005;-72
2022/03/02 09:35:39;;;;;;;;;;;;;;;17.37;46.47;101345.09;4407272;32;19994;-73
2022/03/02 09:38:05;;;;;;;;;;;;;;;17.30;46.06;101345.37;4406659;32;20019;-72
2022/03/02 09:40:31;;;;;;;;;;;;;;;17.35;45.89;101350.44;4407231;32;19996;-72
2022/03/02 09:42:58;;;;;;;;;;;;;;;17.16;46.30;101345.97;4408925;32;19997;-72
2022/03/02 09:45:26;;;;;;;;;;;;;;;17.34;45.95;101343.94;4410195;32;19992;-72
2022/03/02 09:47:56;;;;;;;;;;;;;;;17.55;45.94;101345.16;4407808;32;20452;-73
2022/03/02 09:50:23;;;;;;;;;;;;;;;17.57;45.24;101340.56;4405112;32;20429;-72
2022/03/02 09:52:48;;;;;;;;;;;;;;;17.65;45.27;101333.28;4409900;32;20001;-73
2022/03/02 09:55:16;;;;;;;;;;;;;;;17.66;45.37;101340.59;4408848;32;19997;-73
2022/03/02 09:57:44;;;;;;;;;;;;;;;17.63;44.98;101335.84;4386590;32;20017;-74
2022/03/02 10:00:11;;;;;;;;;;;;;;;17.30;45.32;101339.69;4392208;32;20403;-72
2022/03/02 10:02:38;;;;;;;;;;;;;;;17.27;45.58;101349.16;4408056;32;20387;-74
2022/03/02 10:05:05;;;;;;;;;;;;;;;17.45;45.43;101338.66;4410609;32;20016;-74
2022/03/02 10:07:33;;;;;;;;;;;;;;;17.30;45.86;101336.84;4408821;32;20048;-74
2022/03/02 10:10:09;;;;;;;;;;;;;;;17.08;45.76;101331.25;4406344;32;20005;-72
2022/03/02 10:12:35;;;;;;;;;;;;;;;17.21;45.57;101331.91;4406545;32;20009;-75
2022/03/02 10:15:02;;;;;;;;;;;;;;;17.01;46.22;101334.41;4407472;32;19973;-74
2022/03/02 10:17:33;;;;;;;;;;;;;;;16.96;46.16;101329.31;4409798;32;20283;-73
2022/03/02 10:20:01;;;;;;;;;;;;;;;17.09;45.85;101329.22;4403067;32;19953;-72
2022/03/02 10:22:41;;;;;;;;;;;;;;;16.86;46.81;101330.53;4408541;32;20009;-73
2022/03/02 10:25:08;;;;;;;;;;;;;;;17.13;46.24;101324.97;4407810;32;19961;-72
2022/03/02 10:27:35;;;;;;;;;;;;;;;17.28;46.24;101317.38;4407187;32;20037;-71
2022/03/02 10:30:05;;;;;;;;;;;;;;;16.93;46.29;101321.72;4404153;32;19987;-71
2022/03/02 10:32:33;;;;;;;;;;;;;;;16.50;46.93;101330.34;4408893;32;19989;-72
2022/03/02 10:35:03;;;;;;;;;;;;;;;16.55;47.31;101326.13;4409416;32;19996;-73
2022/03/02 10:37:30;;;;;;;;;;;;;;;16.78;46.93;101320.72;4407588;32;20004;-71
2022/03/02 10:42:36;;;;;;;;;;;;;;;17.48;46.09;101317.78;3926251;32;15723308;-72
2022/03/02 10:45:04;;;;;;;;;;;;;;;17.48;46.09;101317.78;4412833;32;20033;-74
2022/03/02 10:47:31;;;;;;;;;;;;;;;17.13;46.50;101313.59;4406362;32;20035;-72
2022/03/02 10:49:58;;;;;;;;;;;;;;;16.79;46.83;101310.94;4418521;32;20020;-73
2022/03/02 10:52:25;;;;;;;;;;;;;;;16.72;46.97;101307.59;4405337;32;19950;-72
2022/03/02 10:54:53;;;;;;;;;;;;;;;16.86;46.88;101307.81;4420001;32;20011;-72
2022/03/02 10:57:18;;;;;;;;;;;;;;;17.21;46.54;101306.31;4419237;32;20005;-71
2022/03/02 10:59:45;;;;;;;;;;;;;;;17.39;45.98;101297.81;4420349;32;20024;-71
2022/03/02 11:02:11;;;;;;;;;;;;;;;17.15;46.34;101305.34;4420667;32;19997;-71
2022/03/02 11:04:40;;;;;;;;;;;;;;;17.31;46.10;101309.97;4401770;32;20093;-74
2022/03/02 11:07:06;;;;;;;;;;;;;;;17.44;45.59;101296.44;4420430;32;20037;-73
2022/03/02 11:09:34;;;;;;;;;;;;;;;17.25;46.16;101301.25;4406962;32;19997;-73
2022/03/02 11:12:00;;;;;;;;;;;;;;;16.88;46.13;101299.56;4420761;32;19957;-72
2022/03/02 11:14:26;;;;;;;;;;;;;;;16.59;47.21;101290.63;4425118;32;20683;-73
2022/03/02 11:17:10;;;;;;;;;;;;;;;16.76;46.66;101291.97;4409920;32;20004;-73
2022/03/02 11:19:42;;;;;;;;;;;;;;;16.68;47.02;101296.34;4421406;32;20007;-72
2022/03/02 11:22:08;;;;;;;;;;;;;;;16.68;47.00;101287.81;4419768;32;20049;-73
2022/03/02 11:24:35;;;;;;;;;;;;;;;16.76;46.75;101289.12;4422324;32;19973;-73
2022/03/02 11:27:01;;;;;;;;;;;;;;;17.15;46.65;101298.91;4421500;32;19961;-75
2022/03/02 11:29:28;;;;;;;;;;;;;;;17.18;46.51;101290.19;4406137;32;19968;-72
2022/03/02 11:31:55;;;;;;;;;;;;;;;17.39;46.23;101294.19;4421196;32;20333;-72
2022/03/02 11:34:28;;;;;;;;;;;;;;;17.22;46.43;101293.69;4423154;32;20399;-71
2022/03/02 11:36:55;;;;;;;;;;;;;;;17.34;45.98;101286.28;4420164;32;19996;-70
2022/03/02 11:39:23;;;;;;;;;;;;;;;17.34;46.03;101280.59;4419868;32;20429;-71
2022/03/02 11:41:50;;;;;;;;;;;;;;;17.13;46.16;101281.50;4417285;32;20364;-72
2022/03/02 11:44:35;;;;;;;;;;;;;;;17.31;45.00;101275.84;4417582;32;20069;-71
2022/03/02 11:47:03;;;;;;;;;;;;;;;17.09;45.97;101281.63;4420716;32;19972;-72
2022/03/02 11:49:44;;;;;;;;;;;;;;;17.12;45.67;101277.09;4417278;32;20021;-72
2022/03/02 11:52:12;;;;;;;;;;;;;;;16.73;46.24;101266.53;4416664;32;19993;-72
2022/03/02 11:54:41;;;;;;;;;;;;;;;16.98;46.04;101272.78;4408465;32;20021;-72
2022/03/02 11:57:06;;;;;;;;;;;;;;;16.87;46.24;101268.78;4411956;32;20028;-72
2022/03/02 11:59:35;;;;;;;;;;;;;;;16.82;46.46;101264.53;4394506;32;20039;-73
2022/03/02 12:02:10;;;;;;;;;;;;;;;16.61;46.49;101265.38;4409122;32;20000;-73
2022/03/02 12:04:36;;;;;;;;;;;;;;;16.51;46.80;101272.28;4406416;32;19976;-74
2022/03/02 12:07:04;;;;;;;;;;;;;;;16.18;47.42;101262.62;4402908;32;20422;-72
2022/03/02 12:09:32;;;;;;;;;;;;;;;15.98;48.05;101256.47;4406590;32;20698;-74
2022/03/02 12:12:21;;;;;;;;;;;;;;;15.90;48.34;101258.03;4411967;32;19981;-74
2022/03/02 12:14:53;;;;;;;;;;;;;;;16.12;48.20;101243.78;4411039;32;20009;-74
2022/03/02 12:17:21;;;;;;;;;;;;;;;16.00;48.34;101256.81;4409686;32;20032;-74
2022/03/02 12:19:50;;;;;;;;;;;;;;;15.93;48.60;101243.69;4402968;32;19985;-75
2022/03/02 12:22:17;;;;;;;;;;;;;;;16.62;47.45;101241.38;4402796;32;20058;-74
2022/03/02 12:24:44;;;;;;;;;;;;;;;16.41;48.18;101236.53;4410080;32;19993;-73
2022/03/02 12:27:11;;;;;;;;;;;;;;;16.23;47.91;101235.66;4403494;32;20020;-75
2022/03/02 12:29:39;;;;;;;;;;;;;;;16.68;47.33;101233.03;4407472;32;20598;-74
2022/03/02 12:32:07;;;;;;;;;;;;;;;16.80;47.02;101223.59;4401018;32;20008;-74
2022/03/02 12:34:34;;;;;;;;;;;;;;;17.03;46.82;101229.50;4406435;32;19987;-74
2022/03/02 12:37:00;;;;;;;;;;;;;;;17.04;46.70;101222.56;4406596;32;20001;-75
2022/03/02 12:39:27;;;;;;;;;;;;;;;16.86;46.56;101216.84;4407650;32;20432;-74
2022/03/02 12:41:53;;;;;;;;;;;;;;;16.82;46.37;101219.03;4395582;32;20212;-75